createdAt,value
2022-10-18T00:01:00.875Z,31.67
2022-10-18T00:03:28.736Z,33.97
2022-10-18T00:05:56.407Z,33.13
2022-10-18T00:08:24.100Z,26.02
2022-10-18T00:10:51.664Z,32.08
2022-10-18T00:13:20.065Z,29.85
2022-10-18T00:15:57.358Z,32.97
2022-10-18T00:21:10.491Z,29.08
2022-10-18T00:23:38.028Z,32.13
2022-10-18T00:26:20.136Z,30.80
2022-10-18T00:28:51.865Z,31.33
2022-10-18T00:31:39.705Z,36.38
2022-10-18T00:34:14.881Z,29.65
2022-10-18T00:36:43.911Z,28.23
2022-10-18T00:39:19.721Z,27.77
2022-10-18T00:41:48.560Z,30.40
2022-10-18T00:44:15.974Z,33.67
2022-10-18T00:46:46.665Z,34.05
2022-10-18T00:49:27.345Z,28.45
2022-10-18T00:52:07.714Z,36.13
2022-10-18T00:54:39.100Z,31.33
2022-10-18T00:57:07.397Z,31.40
2022-10-18T00:59:36.112Z,40.30
2022-10-18T01:02:05.055Z,32.25
2022-10-18T01:04:32.604Z,32.42
2022-10-18T01:07:27.381Z,37.53
2022-10-18T01:10:14.069Z,31.85
2022-10-18T01:12:56.068Z,34.83
2022-10-18T01:15:26.374Z,33.13
2022-10-18T01:18:21.031Z,32.70
2022-10-18T01:21:00.714Z,30.75
2022-10-18T01:24:09.262Z,28.30
2022-10-18T01:26:44.918Z,33.78
2022-10-18T01:29:24.606Z,33.80
2022-10-18T01:31:59.659Z,32.15
2022-10-18T01:34:31.596Z,32.55
2022-10-18T01:37:00.642Z,29.30
2022-10-18T01:39:31.894Z,30.20
2022-10-18T01:42:03.026Z,31.38
2022-10-18T01:44:32.955Z,32.47
2022-10-18T01:47:01.303Z,30.77
2022-10-18T01:49:28.784Z,38.40
2022-10-18T01:51:56.359Z,32.88
2022-10-18T01:54:33.024Z,29.63
2022-10-18T01:57:03.367Z,31.25
2022-10-18T01:59:46.177Z,33.63
2022-10-18T02:02:35.183Z,31.52
2022-10-18T02:05:11.643Z,33.80
2022-10-18T02:08:05.626Z,30.70
2022-10-18T02:10:48.652Z,35.28
2022-10-18T02:13:20.666Z,34.55
2022-10-18T02:15:52.456Z,36.00
2022-10-18T02:18:28.722Z,30.65
2022-10-18T02:20:57.391Z,36.97
2022-10-18T02:23:26.652Z,29.13
2022-10-18T02:25:54.639Z,31.70
2022-10-18T02:28:22.636Z,31.08
2022-10-18T02:30:58.445Z,30.70
2022-10-18T02:33:34.296Z,33.95
2022-10-18T02:36:10.812Z,33.47
2022-10-18T02:38:41.728Z,37.47
2022-10-18T02:41:09.167Z,35.88
2022-10-18T02:43:36.746Z,39.40
2022-10-18T02:46:04.267Z,35.10
2022-10-18T02:48:31.796Z,33.22
2022-10-18T02:50:59.250Z,36.17
2022-10-18T02:53:26.714Z,35.03
2022-10-18T02:55:54.262Z,37.08
2022-10-18T02:58:21.750Z,33.00
2022-10-18T03:00:52.158Z,33.10
2022-10-18T03:03:20.740Z,35.25
2022-10-18T03:05:52.600Z,35.47
2022-10-18T03:08:20.440Z,31.42
2022-10-18T03:10:47.928Z,31.45
2022-10-18T03:13:16.008Z,32.67
2022-10-18T03:15:43.671Z,39.58
2022-10-18T03:18:11.125Z,32.92
2022-10-18T03:20:38.767Z,38.15
2022-10-18T03:23:07.248Z,37.72
2022-10-18T03:25:34.759Z,30.55
2022-10-18T03:28:02.315Z,35.47
2022-10-18T03:30:29.887Z,35.97
2022-10-18T03:32:57.526Z,36.67
2022-10-18T03:35:25.066Z,37.85
2022-10-18T03:37:52.589Z,34.45
2022-10-18T03:40:20.739Z,38.67
2022-10-18T03:42:48.271Z,35.03
2022-10-18T03:45:15.826Z,35.55
2022-10-18T03:47:43.312Z,39.50
2022-10-18T03:50:11.006Z,38.85
2022-10-18T03:52:38.525Z,38.08
2022-10-18T03:55:06.817Z,34.35
2022-10-18T03:57:34.336Z,37.42
2022-10-18T04:00:02.260Z,40.28
2022-10-18T04:02:40.584Z,35.78
2022-10-18T04:05:09.009Z,38.67
2022-10-18T04:10:10.581Z,40.85
2022-10-18T04:12:38.300Z,38.00
2022-10-18T04:15:06.413Z,37.20
2022-10-18T04:17:34.525Z,36.95
2022-10-18T04:20:02.388Z,33.05
2022-10-18T04:22:30.258Z,34.13
2022-10-18T04:24:57.878Z,33.33
2022-10-18T04:27:25.449Z,35.38
2022-10-18T04:29:53.209Z,30.92
2022-10-18T04:32:20.633Z,34.80
2022-10-18T04:34:48.140Z,35.50
2022-10-18T04:37:15.660Z,31.80
2022-10-18T04:39:51.161Z,31.25
2022-10-18T04:42:22.028Z,33.70
2022-10-18T04:44:49.675Z,35.10
2022-10-18T04:47:18.495Z,40.90
2022-10-18T04:49:46.319Z,35.53
2022-10-18T04:52:14.974Z,37.80
2022-10-18T04:54:42.462Z,34.08
2022-10-18T04:57:10.046Z,36.17
2022-10-18T04:59:37.566Z,38.22
2022-10-18T05:02:05.119Z,33.80
2022-10-18T05:04:32.632Z,38.55
2022-10-18T05:07:00.163Z,37.00
2022-10-18T05:09:27.802Z,33.05
2022-10-18T05:11:55.302Z,33.38
2022-10-18T05:14:22.812Z,38.65
2022-10-18T05:16:50.323Z,35.58
2022-10-18T05:19:17.887Z,44.47
2022-10-18T05:21:47.551Z,41.67
2022-10-18T05:24:15.111Z,38.30
2022-10-18T05:26:42.641Z,41.28
2022-10-18T05:29:10.380Z,46.22
2022-10-18T05:31:37.890Z,42.60
2022-10-18T05:34:05.447Z,38.85
2022-10-18T05:36:33.017Z,45.75
2022-10-18T05:39:04.925Z,44.53
2022-10-18T05:41:32.924Z,42.47
2022-10-18T05:44:04.734Z,40.70
2022-10-18T05:46:33.127Z,40.05
2022-10-18T05:49:01.071Z,39.03
2022-10-18T05:51:28.607Z,41.92
2022-10-18T05:53:56.139Z,31.83
2022-10-18T05:56:23.615Z,38.05
2022-10-18T05:58:52.194Z,34.92
2022-10-18T06:01:20.175Z,32.45
2022-10-18T06:03:47.871Z,35.15
2022-10-18T06:06:15.678Z,39.03
2022-10-18T06:08:44.375Z,43.00
2022-10-18T06:11:14.877Z,39.65
2022-10-18T06:13:43.788Z,37.28
2022-10-18T06:16:13.143Z,41.50
2022-10-18T06:18:51.710Z,42.33
2022-10-18T06:23:51.506Z,37.63
2022-10-18T06:26:19.365Z,36.45
2022-10-18T06:28:46.836Z,34.70
2022-10-18T06:31:16.325Z,40.08
2022-10-18T06:33:45.827Z,38.15
2022-10-18T06:36:16.184Z,34.80
2022-10-18T06:38:44.275Z,33.28
2022-10-18T06:41:12.101Z,30.98
2022-10-18T06:43:39.819Z,30.50
2022-10-18T06:46:08.330Z,30.48
2022-10-18T06:48:37.039Z,27.50
2022-10-18T06:51:07.438Z,26.38
2022-10-18T06:53:44.040Z,26.95
2022-10-18T06:56:20.832Z,23.10
2022-10-18T06:58:48.318Z,24.33
2022-10-18T07:01:18.357Z,24.88
2022-10-18T07:03:47.622Z,45.83
2022-10-18T07:06:17.788Z,49.17
2022-10-18T07:08:46.755Z,25.42
2022-10-18T07:11:20.835Z,24.48
2022-10-18T07:13:48.306Z,18.13
2022-10-18T07:16:18.654Z,20.48
2022-10-18T07:18:49.861Z,17.65
2022-10-18T07:21:20.190Z,18.38
2022-10-18T07:23:47.941Z,17.85
2022-10-18T07:26:22.880Z,21.98
2022-10-18T07:28:55.194Z,20.52
2022-10-18T07:31:23.637Z,19.30
2022-10-18T07:33:52.124Z,14.23
2022-10-18T07:36:21.349Z,22.60
2022-10-18T07:38:49.609Z,17.70
2022-10-18T07:41:17.479Z,18.08
2022-10-18T07:43:47.632Z,19.05
2022-10-18T07:48:59.560Z,18.33
2022-10-18T07:51:28.118Z,16.27
2022-10-18T07:53:55.676Z,16.00
2022-10-18T07:56:23.191Z,20.25
2022-10-18T07:58:52.764Z,15.60
2022-10-18T08:01:22.672Z,15.43
2022-10-18T08:03:53.584Z,18.58
2022-10-18T08:06:22.898Z,18.60
2022-10-18T08:08:50.584Z,18.08
2022-10-18T08:11:21.118Z,24.98
2022-10-18T08:13:48.785Z,24.08
2022-10-18T08:16:19.331Z,24.00
2022-10-18T08:18:47.028Z,21.92
2022-10-18T08:21:16.642Z,17.27
2022-10-18T08:23:45.109Z,20.65
2022-10-18T08:26:18.421Z,21.20
2022-10-18T08:28:53.826Z,19.70
2022-10-18T08:31:31.361Z,18.67
2022-10-18T08:33:58.919Z,17.35
2022-10-18T08:36:26.391Z,16.38
2022-10-18T08:38:53.947Z,19.65
2022-10-18T08:41:42.476Z,21.23
2022-10-18T08:44:24.027Z,20.63
2022-10-18T08:46:58.701Z,20.00
2022-10-18T08:49:46.255Z,19.52
2022-10-18T08:52:52.766Z,18.30
2022-10-18T08:55:41.063Z,17.05
2022-10-18T08:58:22.144Z,18.90
2022-10-18T09:01:01.663Z,17.42
2022-10-18T09:03:29.222Z,16.92
2022-10-18T09:06:11.962Z,18.50
2022-10-18T09:09:00.919Z,17.45
2022-10-18T09:11:44.615Z,16.98
2022-10-18T09:14:32.242Z,17.35
2022-10-18T09:17:37.356Z,16.50
2022-10-18T09:20:17.747Z,15.40
2022-10-18T09:22:54.252Z,19.30
2022-10-18T09:25:26.515Z,17.90
2022-10-18T09:28:01.068Z,18.25
2022-10-18T09:30:43.677Z,15.05
2022-10-18T09:33:26.698Z,17.17
2022-10-18T09:36:01.373Z,16.65
2022-10-18T09:38:32.781Z,16.83
2022-10-18T09:41:20.704Z,19.90
2022-10-18T09:43:54.744Z,17.33
2022-10-18T09:46:26.798Z,19.95
2022-10-18T09:49:05.938Z,21.77
2022-10-18T09:51:42.661Z,18.40
2022-10-18T09:54:31.045Z,16.73
2022-10-18T09:57:06.668Z,14.05
2022-10-18T09:59:36.352Z,15.20
2022-10-18T10:02:05.258Z,14.48
2022-10-18T10:04:33.213Z,15.60
2022-10-18T10:07:02.333Z,15.70
2022-10-18T10:09:58.105Z,16.15
2022-10-18T10:12:35.802Z,15.80
2022-10-18T10:15:27.006Z,15.75
2022-10-18T10:20:31.898Z,12.60
2022-10-18T10:25:42.664Z,14.48
2022-10-18T10:28:16.579Z,13.98
2022-10-18T10:30:44.557Z,13.20
2022-10-18T10:33:36.427Z,18.08
2022-10-18T10:36:15.798Z,15.45
2022-10-18T10:38:43.283Z,13.85
2022-10-18T10:41:23.862Z,16.25
2022-10-18T10:43:51.600Z,14.27
2022-10-18T10:46:20.572Z,14.77
2022-10-18T10:48:56.277Z,14.48
2022-10-18T10:51:34.110Z,15.65
2022-10-18T10:54:15.935Z,14.25
2022-10-18T10:56:58.618Z,14.50
2022-10-18T10:59:29.010Z,14.70
2022-10-18T11:02:21.752Z,18.70
2022-10-18T11:04:55.058Z,13.43
2022-10-18T11:07:41.940Z,12.75
2022-10-18T11:10:09.336Z,13.68
2022-10-18T11:12:44.741Z,16.92
2022-10-18T11:15:24.888Z,14.15
2022-10-18T11:18:10.812Z,14.68
2022-10-18T11:21:19.013Z,13.93
2022-10-18T11:23:46.697Z,12.55
2022-10-18T11:26:55.304Z,15.05
2022-10-18T11:29:52.061Z,13.27
2022-10-18T11:32:45.840Z,15.65
2022-10-18T11:35:51.860Z,12.50
2022-10-18T11:38:45.529Z,16.48
2022-10-18T11:41:15.728Z,15.18
2022-10-18T11:44:19.272Z,16.23
2022-10-18T11:47:11.676Z,14.82
2022-10-18T11:49:54.319Z,14.02
2022-10-18T11:52:39.696Z,15.90
2022-10-18T11:55:33.000Z,14.23
2022-10-18T12:00:55.193Z,14.02
2022-10-18T12:03:41.874Z,12.52
2022-10-18T12:06:16.762Z,13.98
2022-10-18T12:08:51.563Z,15.82
2022-10-18T12:11:24.562Z,15.23
2022-10-18T12:13:57.771Z,16.95
2022-10-18T12:16:49.858Z,14.38
2022-10-18T12:19:27.445Z,13.07
2022-10-18T12:22:16.585Z,15.20
2022-10-18T12:24:44.146Z,16.50
2022-10-18T12:27:14.347Z,17.00
2022-10-18T12:29:53.333Z,16.30
2022-10-18T12:32:27.629Z,14.10
2022-10-18T12:35:05.804Z,16.45
2022-10-18T12:37:42.310Z,18.63
2022-10-18T12:40:36.100Z,13.25
2022-10-18T12:43:09.908Z,14.43
2022-10-18T12:45:50.819Z,17.40
2022-10-18T12:48:35.585Z,14.57
2022-10-18T12:51:16.891Z,13.68
2022-10-18T12:53:46.587Z,12.02
2022-10-18T12:56:29.590Z,14.82
2022-10-18T12:59:15.381Z,13.00
2022-10-18T13:01:52.111Z,11.85
2022-10-18T13:04:28.754Z,12.77
2022-10-18T13:07:05.305Z,13.98
2022-10-18T13:09:38.613Z,12.25
2022-10-18T13:12:09.098Z,14.68
2022-10-18T13:15:20.828Z,11.43
2022-10-18T13:18:21.740Z,17.60
2022-10-18T13:21:27.862Z,11.85
2022-10-18T13:24:13.866Z,11.30
2022-10-18T13:26:59.098Z,16.73
2022-10-18T13:30:00.119Z,13.13
2022-10-18T13:32:37.349Z,13.57
2022-10-18T13:35:42.772Z,16.88
2022-10-18T13:38:36.864Z,13.38
2022-10-18T13:41:11.281Z,12.48
2022-10-18T13:43:55.120Z,15.25
2022-10-18T13:46:24.843Z,16.05
2022-10-18T13:49:00.739Z,11.95
2022-10-18T13:51:56.724Z,19.17
2022-10-18T13:54:52.037Z,16.05
2022-10-18T13:57:41.100Z,12.50
2022-10-18T14:00:33.535Z,11.00
2022-10-18T14:03:31.984Z,12.52
2022-10-18T14:06:07.069Z,15.55
2022-10-18T14:08:49.727Z,15.00
2022-10-18T14:11:35.509Z,19.90
2022-10-18T14:14:15.055Z,12.07
2022-10-18T14:16:51.486Z,12.88
2022-10-18T14:19:28.886Z,11.63
2022-10-18T14:22:28.575Z,18.40
2022-10-18T14:24:58.034Z,15.23
2022-10-18T14:27:32.536Z,14.73
2022-10-18T14:30:16.635Z,12.70
2022-10-18T14:32:47.624Z,13.80
2022-10-18T14:35:32.942Z,15.52
2022-10-18T14:38:02.549Z,13.50
2022-10-18T14:40:37.889Z,20.23
2022-10-18T14:43:14.075Z,20.48
2022-10-18T14:45:42.557Z,16.58
2022-10-18T14:48:23.538Z,12.27
2022-10-18T14:50:59.426Z,12.57
2022-10-18T14:53:37.522Z,14.45
2022-10-18T14:56:07.497Z,13.70
2022-10-18T14:58:37.988Z,14.95
2022-10-18T15:01:06.048Z,13.88
2022-10-18T15:03:35.824Z,14.05
2022-10-18T15:06:05.827Z,20.88
2022-10-18T15:08:40.492Z,15.13
2022-10-18T15:11:11.888Z,12.82
2022-10-18T15:13:57.466Z,20.50
2022-10-18T15:16:30.779Z,15.52
2022-10-18T15:19:06.266Z,14.65
2022-10-18T15:21:36.924Z,17.48
2022-10-18T15:24:36.422Z,14.93
2022-10-18T15:27:19.087Z,18.15
2022-10-18T15:29:46.857Z,18.50
2022-10-18T15:32:35.579Z,20.67
2022-10-18T15:35:32.238Z,15.15
2022-10-18T15:38:21.032Z,21.30
2022-10-18T15:40:48.651Z,12.52
2022-10-18T15:43:28.288Z,15.75
2022-10-18T15:46:05.357Z,21.58
2022-10-18T15:48:39.806Z,15.38
2022-10-18T15:51:19.329Z,14.57
2022-10-18T15:53:55.671Z,13.80
2022-10-18T15:56:42.342Z,22.65
2022-10-18T15:59:27.761Z,34.40
2022-10-18T16:01:55.881Z,15.35
2022-10-18T16:04:33.099Z,22.55
2022-10-18T16:07:00.745Z,28.90
2022-10-18T16:09:29.114Z,21.30
2022-10-18T16:11:58.556Z,24.25
2022-10-18T16:14:26.428Z,29.95
2022-10-18T16:16:56.147Z,26.30
2022-10-18T16:19:24.041Z,23.92
2022-10-18T16:21:56.473Z,16.85
2022-10-18T16:24:24.419Z,33.95
2022-10-18T16:26:52.033Z,53.55
2022-10-18T16:29:24.507Z,28.83
2022-10-18T16:31:55.262Z,20.42
2022-10-18T16:34:22.819Z,20.98
2022-10-18T16:36:50.261Z,17.38
2022-10-18T16:39:19.969Z,21.83
2022-10-18T16:41:48.108Z,23.08
2022-10-18T16:44:16.752Z,33.50
2022-10-18T16:46:44.246Z,19.90
2022-10-18T16:51:54.492Z,18.05
2022-10-18T16:54:22.875Z,22.30
2022-10-18T16:56:50.572Z,19.48
2022-10-18T16:59:29.092Z,20.50
2022-10-18T17:01:56.704Z,26.58
2022-10-18T17:04:24.284Z,18.75
2022-10-18T17:06:54.330Z,24.60
2022-10-18T17:09:21.897Z,16.75
2022-10-18T17:11:49.694Z,23.25
2022-10-18T17:14:17.222Z,21.70
2022-10-18T17:16:54.863Z,19.70
2022-10-18T17:19:24.299Z,22.08
2022-10-18T17:21:51.886Z,19.25
2022-10-18T17:24:19.315Z,18.35
2022-10-18T17:26:46.803Z,21.80
2022-10-18T17:29:14.315Z,20.75
2022-10-18T17:31:42.090Z,21.85
2022-10-18T17:34:09.586Z,19.67
2022-10-18T17:36:37.334Z,20.65
2022-10-18T17:39:07.546Z,20.58
2022-10-18T17:41:35.063Z,17.13
2022-10-18T17:44:04.303Z,23.63
2022-10-18T17:46:32.004Z,19.20
2022-10-18T17:48:59.562Z,28.65
2022-10-18T17:51:27.150Z,22.40
2022-10-18T17:53:54.708Z,23.63
2022-10-18T17:56:22.285Z,25.00
2022-10-18T17:58:53.131Z,22.40
2022-10-18T18:01:23.273Z,24.02
2022-10-18T18:03:56.722Z,20.83
2022-10-18T18:06:34.147Z,19.17
2022-10-18T18:09:08.365Z,21.95
2022-10-18T18:11:38.422Z,23.40
2022-10-18T18:14:09.064Z,22.27
2022-10-18T18:16:38.934Z,24.48
2022-10-18T18:19:09.651Z,26.00
2022-10-18T18:21:41.543Z,21.98
2022-10-18T18:24:10.169Z,30.98
2022-10-18T18:26:40.019Z,33.38
2022-10-18T18:29:07.561Z,21.95
2022-10-18T18:31:40.045Z,20.67
2022-10-18T18:34:10.404Z,21.73
2022-10-18T18:36:38.767Z,21.67
2022-10-18T18:39:07.339Z,23.88
2022-10-18T18:41:35.372Z,21.30
2022-10-18T18:44:05.310Z,22.60
2022-10-18T18:46:38.234Z,23.77
2022-10-18T18:49:07.061Z,26.63
2022-10-18T18:51:38.032Z,22.58
2022-10-18T18:54:07.109Z,23.27
2022-10-18T18:56:34.755Z,24.17
2022-10-18T18:59:02.966Z,23.73
2022-10-18T19:01:32.874Z,20.38
2022-10-18T19:04:00.708Z,21.40
2022-10-18T19:06:39.794Z,25.08
2022-10-18T19:09:25.525Z,19.88
2022-10-18T19:11:55.398Z,23.70
2022-10-18T19:14:25.039Z,21.30
2022-10-18T19:16:55.147Z,22.05
2022-10-18T19:19:24.814Z,20.15
2022-10-18T19:21:54.853Z,23.23
2022-10-18T19:24:24.022Z,27.23
2022-10-18T19:26:53.885Z,23.27
2022-10-18T19:29:24.092Z,24.52
2022-10-18T19:31:56.664Z,24.60
2022-10-18T19:34:26.505Z,22.45
2022-10-18T19:36:54.207Z,22.80
2022-10-18T19:39:26.697Z,19.27
2022-10-18T19:41:56.127Z,20.77
2022-10-18T19:44:25.679Z,19.23
2022-10-18T19:46:53.591Z,20.65
2022-10-18T19:49:22.349Z,22.60
2022-10-18T19:51:49.997Z,20.58
2022-10-18T19:54:17.767Z,22.40
2022-10-18T19:56:45.355Z,20.30
2022-10-18T19:59:15.569Z,20.88
2022-10-18T20:01:44.144Z,25.98
2022-10-18T20:04:12.907Z,25.80
2022-10-18T20:06:41.361Z,24.23
2022-10-18T20:09:13.484Z,26.83
2022-10-18T20:11:43.859Z,30.92
2022-10-18T20:14:11.361Z,22.35
2022-10-18T20:16:38.831Z,23.98
2022-10-18T20:19:09.737Z,22.85
2022-10-18T20:21:37.462Z,24.60
2022-10-18T20:24:06.196Z,24.27
2022-10-18T20:26:35.790Z,21.75
2022-10-18T20:29:04.180Z,27.35
2022-10-18T20:31:35.578Z,20.33
2022-10-18T20:34:06.313Z,21.88
2022-10-18T20:36:34.762Z,22.65
2022-10-18T20:39:03.558Z,22.85
2022-10-18T20:41:34.048Z,22.88
2022-10-18T20:44:04.312Z,22.95
2022-10-18T20:46:34.128Z,21.63
2022-10-18T20:49:02.110Z,23.30
2022-10-18T20:51:29.803Z,24.35
2022-10-18T20:53:57.406Z,21.92
2022-10-18T20:56:28.904Z,23.08
2022-10-18T20:58:57.806Z,21.35
2022-10-18T21:01:28.129Z,21.23
2022-10-18T21:04:09.953Z,23.70
2022-10-18T21:06:40.980Z,25.30
2022-10-18T21:09:11.827Z,21.98
2022-10-18T21:11:44.678Z,22.73
2022-10-18T21:14:17.617Z,26.02
2022-10-18T21:16:48.645Z,27.92
2022-10-18T21:19:19.931Z,22.33
2022-10-18T21:21:50.480Z,22.00
2022-10-18T21:24:19.905Z,23.58
2022-10-18T21:26:51.165Z,22.83
2022-10-18T21:29:22.325Z,22.63
2022-10-18T21:31:54.323Z,22.02
2022-10-18T21:34:22.248Z,22.42
2022-10-18T21:36:49.738Z,24.67
2022-10-18T21:39:19.802Z,24.77
2022-10-18T21:41:47.603Z,24.45
2022-10-18T21:44:16.252Z,24.45
2022-10-18T21:46:44.413Z,28.90
2022-10-18T21:49:13.599Z,23.42
2022-10-18T21:51:41.598Z,25.52
2022-10-18T21:54:13.117Z,25.33
2022-10-18T21:56:41.370Z,22.95
2022-10-18T21:59:12.134Z,24.55
2022-10-18T22:01:40.218Z,24.05
2022-10-18T22:04:20.990Z,23.30
2022-10-18T22:06:48.991Z,24.13
2022-10-18T22:09:16.532Z,27.55
2022-10-18T22:11:49.167Z,22.17
2022-10-18T22:14:16.630Z,23.95
2022-10-18T22:16:44.185Z,22.25
2022-10-18T22:19:12.499Z,24.15
2022-10-18T22:21:41.143Z,22.08
2022-10-18T22:24:09.945Z,23.15
2022-10-18T22:26:40.214Z,24.15
2022-10-18T22:29:15.581Z,24.05
2022-10-18T22:31:46.246Z,27.35
2022-10-18T22:34:16.779Z,24.23
2022-10-18T22:36:45.820Z,24.67
2022-10-18T22:39:14.531Z,22.75
2022-10-18T22:41:42.868Z,23.30
2022-10-18T22:44:14.470Z,21.20
2022-10-18T22:46:42.811Z,27.73
2022-10-18T22:49:11.256Z,21.27
2022-10-18T22:51:38.783Z,22.00
2022-10-18T22:54:06.283Z,19.70
2022-10-18T22:56:33.791Z,21.58
2022-10-18T22:59:01.452Z,20.08
2022-10-18T23:01:29.019Z,21.20
2022-10-18T23:03:58.827Z,24.55
2022-10-18T23:06:34.189Z,21.98
2022-10-18T23:09:05.494Z,20.15
2022-10-18T23:11:34.616Z,20.67
2022-10-18T23:14:03.753Z,18.98
2022-10-18T23:16:31.668Z,21.02
2022-10-18T23:18:59.374Z,21.70
2022-10-18T23:21:28.286Z,18.35
2022-10-18T23:23:56.783Z,20.65
2022-10-18T23:26:27.579Z,20.60
2022-10-18T23:28:55.624Z,20.35
2022-10-18T23:31:29.052Z,18.48
2022-10-18T23:33:58.841Z,20.83
2022-10-18T23:36:26.849Z,19.48
2022-10-18T23:38:55.287Z,20.20
2022-10-18T23:41:23.584Z,20.88
2022-10-18T23:43:51.558Z,22.95
2022-10-18T23:46:19.721Z,22.77
2022-10-18T23:48:47.868Z,19.20
2022-10-18T23:51:17.287Z,20.10
2022-10-18T23:53:45.021Z,21.80
2022-10-18T23:56:15.786Z,22.23
2022-10-18T23:58:44.983Z,18.52
